createdAt,value
2019-02-21T00:00:57.241Z,8.48
2019-02-21T00:02:07.484Z,8.47
2019-02-21T00:03:16.094Z,8.46
2019-02-21T00:04:24.142Z,8.48
2019-02-21T00:05:32.960Z,8.47
2019-02-21T00:06:41.512Z,8.48
2019-02-21T00:07:49.841Z,8.47
2019-02-21T00:08:58.219Z,8.43
2019-02-21T00:10:07.689Z,8.38
2019-02-21T00:11:15.791Z,8.35
2019-02-21T00:12:24.554Z,8.34
2019-02-21T00:13:32.475Z,8.30
2019-02-21T00:14:40.779Z,8.30
2019-02-21T00:15:49.394Z,8.32
2019-02-21T00:16:58.735Z,8.35
2019-02-21T00:18:07.222Z,8.35
2019-02-21T00:19:15.391Z,8.36
2019-02-21T00:20:23.432Z,8.33
2019-02-21T00:21:31.988Z,8.33
2019-02-21T00:22:40.013Z,8.33
2019-02-21T00:23:48.496Z,8.28
2019-02-21T00:24:57.208Z,8.27
2019-02-21T00:26:06.019Z,8.26
2019-02-21T00:27:14.241Z,8.22
2019-02-21T00:28:22.332Z,8.17
2019-02-21T00:29:30.634Z,8.15
2019-02-21T00:30:39.296Z,8.13
2019-02-21T00:31:47.855Z,8.13
2019-02-21T00:32:56.089Z,8.14
2019-02-21T00:34:04.462Z,8.14
2019-02-21T00:35:12.776Z,8.11
2019-02-21T00:36:21.355Z,8.12
2019-02-21T00:37:29.977Z,8.15
2019-02-21T00:38:38.800Z,8.16
2019-02-21T00:39:47.340Z,8.19
2019-02-21T00:40:56.190Z,8.16
2019-02-21T00:42:04.824Z,8.15
2019-02-21T00:43:13.293Z,8.13
2019-02-21T00:44:21.979Z,8.13
2019-02-21T00:45:30.954Z,8.09
2019-02-21T00:46:39.271Z,8.09
2019-02-21T00:47:47.642Z,8.13
2019-02-21T00:48:55.944Z,8.18
2019-02-21T00:50:04.725Z,8.15
2019-02-21T00:51:13.195Z,8.11
2019-02-21T00:52:21.431Z,8.11
2019-02-21T00:53:30.078Z,8.13
2019-02-21T00:54:38.443Z,8.14
2019-02-21T00:55:47.193Z,8.15
2019-02-21T00:56:56.326Z,8.11
2019-02-21T00:58:04.621Z,8.05
2019-02-21T00:59:12.727Z,8.04
2019-02-21T01:00:21.121Z,8.09
2019-02-21T01:01:29.633Z,8.13
2019-02-21T01:02:38.132Z,8.18
2019-02-21T01:03:46.748Z,8.19
2019-02-21T01:04:55.407Z,8.18
2019-02-21T01:06:04.168Z,8.19
2019-02-21T01:07:12.572Z,8.21
2019-02-21T01:08:21.144Z,8.23
2019-02-21T01:09:29.220Z,8.22
2019-02-21T01:10:37.634Z,8.25
2019-02-21T01:11:46.283Z,8.23
2019-02-21T01:12:54.688Z,8.20
2019-02-21T01:14:03.091Z,8.20
2019-02-21T01:15:12.624Z,8.24
2019-02-21T01:16:20.938Z,8.25
2019-02-21T01:17:29.541Z,8.24
2019-02-21T01:18:37.679Z,8.24
2019-02-21T01:19:45.858Z,8.26
2019-02-21T01:20:54.027Z,8.24
2019-02-21T01:22:02.435Z,8.26
2019-02-21T01:23:11.244Z,8.27
2019-02-21T01:24:19.759Z,8.29
2019-02-21T01:25:27.994Z,8.30
2019-02-21T01:26:36.410Z,8.35
2019-02-21T01:27:44.614Z,8.37
2019-02-21T01:28:52.980Z,8.35
2019-02-21T01:30:01.465Z,8.35
2019-02-21T01:31:09.770Z,8.33
2019-02-21T01:32:18.093Z,8.29
2019-02-21T01:33:26.071Z,8.27
2019-02-21T01:34:34.675Z,8.23
2019-02-21T01:35:43.303Z,8.19
2019-02-21T01:36:51.601Z,8.19
2019-02-21T01:38:00.063Z,8.21
2019-02-21T01:39:08.643Z,8.21
2019-02-21T01:40:16.799Z,8.19
2019-02-21T01:41:25.190Z,8.19
2019-02-21T01:42:33.311Z,8.20
2019-02-21T01:43:41.350Z,8.21
2019-02-21T01:44:49.786Z,8.21
2019-02-21T01:45:58.253Z,8.22
2019-02-21T01:47:06.707Z,8.24
2019-02-21T01:48:14.901Z,8.27
2019-02-21T01:49:23.093Z,8.29
2019-02-21T01:50:31.714Z,8.32
2019-02-21T01:51:40.211Z,8.33
2019-02-21T01:52:48.322Z,8.35
2019-02-21T01:53:56.811Z,8.36
2019-02-21T01:55:07.690Z,8.38
2019-02-21T01:56:16.074Z,8.39
2019-02-21T01:57:24.067Z,8.40
2019-02-21T01:58:32.294Z,8.41
2019-02-21T01:59:40.883Z,8.40
2019-02-21T02:00:49.418Z,8.41
2019-02-21T02:01:58.026Z,8.42
2019-02-21T02:03:06.431Z,8.42
2019-02-21T02:04:14.712Z,8.42
2019-02-21T02:05:22.928Z,8.42
2019-02-21T02:06:31.141Z,8.43
2019-02-21T02:07:40.463Z,8.43
2019-02-21T02:08:48.860Z,8.40
2019-02-21T02:09:57.288Z,8.35
2019-02-21T02:11:05.610Z,8.31
2019-02-21T02:12:13.922Z,8.31
2019-02-21T02:13:24.867Z,8.32
2019-02-21T02:14:32.110Z,8.35
2019-02-21T02:15:40.290Z,8.36
2019-02-21T02:16:48.526Z,8.38
2019-02-21T02:17:56.811Z,8.40
2019-02-21T02:19:05.037Z,8.39
2019-02-21T02:20:13.685Z,8.39
2019-02-21T02:21:22.009Z,8.35
2019-02-21T02:22:30.125Z,8.33
2019-02-21T02:23:38.933Z,8.32
2019-02-21T02:24:47.246Z,8.34
2019-02-21T02:25:55.565Z,8.35
2019-02-21T02:27:03.738Z,8.33
2019-02-21T02:28:11.951Z,8.32
2019-02-21T02:29:20.174Z,8.29
2019-02-21T02:30:28.222Z,8.27
2019-02-21T02:31:36.644Z,8.25
2019-02-21T02:32:45.124Z,8.26
2019-02-21T02:33:53.183Z,8.27
2019-02-21T02:35:02.010Z,8.29
2019-02-21T02:36:10.225Z,8.22
2019-02-21T02:37:18.123Z,8.17
2019-02-21T02:38:26.655Z,8.11
2019-02-21T02:39:35.285Z,8.11
2019-02-21T02:40:43.430Z,8.13
2019-02-21T02:41:51.706Z,8.17
2019-02-21T02:42:59.772Z,8.22
2019-02-21T02:44:08.139Z,8.26
2019-02-21T02:45:16.676Z,8.29
2019-02-21T02:46:24.825Z,8.31
2019-02-21T02:47:33.386Z,8.31
2019-02-21T02:48:41.702Z,8.25
2019-02-21T02:49:49.972Z,8.17
2019-02-21T02:50:58.662Z,8.15
2019-02-21T02:52:07.155Z,8.16
2019-02-21T02:53:15.430Z,8.10
2019-02-21T02:54:23.856Z,8.03
2019-02-21T02:55:31.967Z,7.99
2019-02-21T02:56:40.513Z,7.94
2019-02-21T02:57:48.583Z,7.91
2019-02-21T02:58:56.589Z,7.86
2019-02-21T03:00:06.627Z,7.81
2019-02-21T03:01:14.975Z,7.79
2019-02-21T03:02:23.423Z,7.77
2019-02-21T03:03:31.719Z,7.74
2019-02-21T03:04:40.782Z,7.68
2019-02-21T03:05:49.036Z,7.66
2019-02-21T03:06:57.634Z,7.66
2019-02-21T03:08:06.787Z,7.67
2019-02-21T03:09:15.278Z,7.68
2019-02-21T03:10:24.716Z,7.71
2019-02-21T03:11:33.330Z,7.72
2019-02-21T03:12:41.493Z,7.70
2019-02-21T03:13:49.915Z,7.72
2019-02-21T03:14:58.855Z,7.77
2019-02-21T03:16:07.871Z,7.81
2019-02-21T03:17:16.171Z,7.82
2019-02-21T03:18:24.540Z,7.84
2019-02-21T03:19:32.885Z,7.87
2019-02-21T03:20:42.779Z,7.93
2019-02-21T03:21:50.776Z,7.98
2019-02-21T03:22:58.993Z,8.03
2019-02-21T03:24:07.300Z,8.06
2019-02-21T03:25:15.665Z,8.10
2019-02-21T03:26:23.906Z,8.12
2019-02-21T03:27:32.067Z,8.16
2019-02-21T03:28:40.347Z,8.18
2019-02-21T03:29:48.616Z,8.18
2019-02-21T03:30:56.856Z,8.18
2019-02-21T03:32:05.334Z,8.20
2019-02-21T03:33:13.529Z,8.22
2019-02-21T03:34:21.731Z,8.26
2019-02-21T03:35:30.092Z,8.26
2019-02-21T03:36:38.363Z,8.24
2019-02-21T03:37:46.591Z,8.25
2019-02-21T03:38:54.765Z,8.27
2019-02-21T03:40:02.693Z,8.29
2019-02-21T03:41:11.376Z,8.25
2019-02-21T03:42:19.834Z,8.18
2019-02-21T03:43:28.716Z,8.09
2019-02-21T03:44:36.987Z,8.05
2019-02-21T03:45:45.155Z,8.03
2019-02-21T03:46:53.167Z,8.08
2019-02-21T03:48:01.654Z,8.13
2019-02-21T03:49:10.046Z,8.17
2019-02-21T03:50:18.284Z,8.19
2019-02-21T03:51:26.839Z,8.22
2019-02-21T03:52:34.951Z,8.25
2019-02-21T03:53:43.482Z,8.27
2019-02-21T03:54:51.439Z,8.28
2019-02-21T03:55:59.423Z,8.28
2019-02-21T03:57:07.681Z,8.24
2019-02-21T03:58:16.033Z,8.24
2019-02-21T03:59:24.272Z,8.25
2019-02-21T04:00:32.535Z,8.28
2019-02-21T04:01:40.965Z,8.28
2019-02-21T04:02:49.016Z,8.28
2019-02-21T04:03:57.282Z,8.28
2019-02-21T04:05:07.011Z,8.25
2019-02-21T04:06:15.400Z,8.23
2019-02-21T04:07:23.691Z,8.25
2019-02-21T04:08:32.180Z,8.25
2019-02-21T04:09:40.157Z,8.24
2019-02-21T04:10:48.415Z,8.21
2019-02-21T04:11:56.466Z,8.16
2019-02-21T04:13:04.449Z,8.11
2019-02-21T04:14:13.141Z,8.12
2019-02-21T04:15:21.271Z,8.13
2019-02-21T04:16:29.628Z,8.13
2019-02-21T04:17:37.739Z,8.12
2019-02-21T04:18:46.372Z,8.11
2019-02-21T04:19:54.433Z,8.09
2019-02-21T04:21:02.467Z,8.09
2019-02-21T04:22:10.993Z,8.11
2019-02-21T04:23:19.551Z,8.11
2019-02-21T04:24:28.015Z,8.12
2019-02-21T04:25:36.327Z,8.08
2019-02-21T04:26:44.231Z,8.06
2019-02-21T04:27:52.196Z,7.99
2019-02-21T04:29:00.516Z,7.98
2019-02-21T04:30:09.617Z,8.00
2019-02-21T04:31:18.441Z,7.99
2019-02-21T04:32:26.518Z,7.97
2019-02-21T04:33:34.704Z,7.98
2019-02-21T04:34:42.621Z,7.96
2019-02-21T04:35:51.254Z,7.96
2019-02-21T04:36:59.557Z,7.93
2019-02-21T04:38:08.015Z,7.93
2019-02-21T04:39:16.152Z,7.97
2019-02-21T04:40:24.491Z,8.02
2019-02-21T04:41:32.624Z,8.07
2019-02-21T04:42:41.319Z,8.09
2019-02-21T04:43:49.579Z,8.11
2019-02-21T04:44:58.358Z,8.15
2019-02-21T04:46:06.340Z,8.16
2019-02-21T04:47:14.730Z,8.18
2019-02-21T04:48:22.897Z,8.18
2019-02-21T04:49:31.380Z,8.17
2019-02-21T04:50:39.679Z,8.19
2019-02-21T04:51:48.257Z,8.21
2019-02-21T04:52:56.403Z,8.22
2019-02-21T04:54:04.898Z,8.24
2019-02-21T04:55:13.711Z,8.24
2019-02-21T04:56:22.280Z,8.27
2019-02-21T04:57:30.834Z,8.26
2019-02-21T04:58:39.142Z,8.27
2019-02-21T04:59:47.483Z,8.28
2019-02-21T05:00:56.447Z,8.29
2019-02-21T05:02:05.986Z,8.28
2019-02-21T05:03:14.285Z,8.27
2019-02-21T05:04:22.532Z,8.27
2019-02-21T05:05:30.786Z,8.26
2019-02-21T05:06:39.144Z,8.27
2019-02-21T05:07:47.424Z,8.26
2019-02-21T05:08:55.903Z,8.25
2019-02-21T05:10:04.397Z,8.24
2019-02-21T05:11:12.709Z,8.23
2019-02-21T05:12:20.858Z,8.20
2019-02-21T05:13:29.169Z,8.20
2019-02-21T05:14:37.315Z,8.20
2019-02-21T05:15:46.060Z,8.15
2019-02-21T05:17:29.842Z,8.05
2019-02-21T05:18:38.105Z,7.93
2019-02-21T05:19:46.248Z,7.87
2019-02-21T05:20:54.408Z,7.83
2019-02-21T05:22:02.612Z,7.82
2019-02-21T05:23:10.944Z,7.77
2019-02-21T05:24:19.167Z,7.73
2019-02-21T05:25:27.337Z,7.70
2019-02-21T05:26:40.031Z,7.70
2019-02-21T05:27:49.220Z,7.68
2019-02-21T05:28:57.776Z,7.70
2019-02-21T05:30:09.459Z,7.66
2019-02-21T05:31:19.896Z,7.67
2019-02-21T05:32:41.058Z,7.72
2019-02-21T05:33:47.577Z,7.74
2019-02-21T05:35:03.292Z,7.77
2019-02-21T05:36:29.360Z,7.77
2019-02-21T05:37:42.896Z,7.79
2019-02-21T05:38:53.019Z,7.76
2019-02-21T05:40:03.542Z,7.73
2019-02-21T05:41:16.870Z,7.69
2019-02-21T05:42:26.461Z,7.66
2019-02-21T05:43:39.247Z,7.62
2019-02-21T05:44:52.105Z,7.58
2019-02-21T05:46:17.809Z,7.58
2019-02-21T05:47:36.818Z,7.55
2019-02-21T05:48:46.749Z,7.49
2019-02-21T05:50:06.579Z,7.46
2019-02-21T05:51:16.248Z,7.45
2019-02-21T05:52:38.289Z,7.51
2019-02-21T05:54:03.101Z,7.54
2019-02-21T05:55:15.892Z,7.52
2019-02-21T05:56:40.980Z,7.51
2019-02-21T05:57:53.758Z,7.54
2019-02-21T05:59:03.738Z,7.52
2019-02-21T06:00:20.300Z,7.51
2019-02-21T06:01:30.680Z,7.50
2019-02-21T06:02:53.156Z,7.48
2019-02-21T06:03:58.796Z,7.45
2019-02-21T06:05:11.666Z,7.42
2019-02-21T06:06:32.348Z,7.40
2019-02-21T06:07:45.095Z,7.37
2019-02-21T06:08:55.965Z,7.36
2019-02-21T06:10:09.610Z,7.34
2019-02-21T06:11:28.914Z,7.30
2019-02-21T06:12:44.678Z,7.28
2019-02-21T06:13:57.088Z,7.26
2019-02-21T06:15:26.163Z,7.27
2019-02-21T06:16:36.019Z,7.29
2019-02-21T06:17:45.679Z,7.32
2019-02-21T06:19:01.923Z,7.40
2019-02-21T06:20:14.324Z,7.41
2019-02-21T06:21:35.680Z,7.40
2019-02-21T06:22:57.765Z,7.38
2019-02-21T06:24:23.417Z,7.36
2019-02-21T06:25:36.071Z,7.31
2019-02-21T06:26:46.213Z,7.27
2019-02-21T06:27:58.388Z,7.24
2019-02-21T06:29:10.338Z,7.23
2019-02-21T06:30:20.131Z,7.20
2019-02-21T06:31:29.044Z,7.23
2019-02-21T06:32:37.558Z,7.23
2019-02-21T06:33:46.322Z,7.29
2019-02-21T06:34:54.777Z,7.31
2019-02-21T06:36:03.267Z,7.32
2019-02-21T06:37:12.798Z,7.30
2019-02-21T06:38:21.340Z,7.32
2019-02-21T06:39:29.787Z,7.30
2019-02-21T06:40:38.193Z,7.29
2019-02-21T06:41:46.596Z,7.30
2019-02-21T06:42:54.934Z,7.31
2019-02-21T06:44:03.219Z,7.33
2019-02-21T06:45:11.739Z,7.38
2019-02-21T06:46:20.039Z,7.44
2019-02-21T06:47:28.098Z,7.49
2019-02-21T06:48:36.307Z,7.55
2019-02-21T06:49:44.907Z,7.58
2019-02-21T06:50:53.149Z,7.63
2019-02-21T06:52:01.313Z,7.67
2019-02-21T06:53:09.505Z,7.69
2019-02-21T06:54:17.684Z,7.72
2019-02-21T06:55:26.011Z,7.75
2019-02-21T06:56:34.194Z,7.79
2019-02-21T06:57:42.548Z,7.81
2019-02-21T06:58:50.737Z,7.84
2019-02-21T06:59:58.821Z,7.86
2019-02-21T07:01:07.050Z,7.91
2019-02-21T07:02:15.340Z,7.94
2019-02-21T07:03:23.549Z,7.97
2019-02-21T07:04:33.354Z,7.99
2019-02-21T07:05:41.579Z,8.03
2019-02-21T07:06:49.838Z,8.06
2019-02-21T07:07:58.091Z,8.07
2019-02-21T07:09:06.961Z,8.10
2019-02-21T07:10:15.405Z,8.10
2019-02-21T07:11:25.289Z,8.14
2019-02-21T07:12:33.650Z,8.16
2019-02-21T07:13:42.508Z,8.20
2019-02-21T07:14:50.649Z,8.25
2019-02-21T07:15:58.759Z,8.28
2019-02-21T07:17:08.549Z,8.31
2019-02-21T07:18:17.248Z,8.35
2019-02-21T07:19:26.070Z,8.39
2019-02-21T07:20:34.468Z,8.42
2019-02-21T07:21:43.128Z,8.45
2019-02-21T07:22:51.333Z,8.48
2019-02-21T07:24:01.138Z,8.50
2019-02-21T07:25:11.321Z,8.51
2019-02-21T07:26:20.131Z,8.53
2019-02-21T07:27:28.645Z,8.56
2019-02-21T07:28:37.029Z,8.60
2019-02-21T07:29:45.242Z,8.62
2019-02-21T07:30:53.740Z,8.61
2019-02-21T07:32:02.180Z,8.56
2019-02-21T07:33:10.614Z,8.54
2019-02-21T07:34:19.047Z,8.48
2019-02-21T07:35:27.505Z,8.46
2019-02-21T07:36:35.706Z,8.47
2019-02-21T07:37:44.263Z,8.45
2019-02-21T07:39:03.333Z,8.46
2019-02-21T07:40:02.808Z,8.48
2019-02-21T07:41:11.765Z,8.54
2019-02-21T07:42:20.099Z,8.54
2019-02-21T07:43:28.533Z,8.58
2019-02-21T07:44:36.459Z,8.59
2019-02-21T07:45:44.943Z,8.63
2019-02-21T07:46:53.584Z,8.65
2019-02-21T07:48:02.100Z,8.69
2019-02-21T07:49:10.569Z,8.68
2019-02-21T07:50:19.330Z,8.68
2019-02-21T07:51:27.874Z,8.71
2019-02-21T07:52:36.528Z,8.75
2019-02-21T07:53:44.889Z,8.79
2019-02-21T07:55:01.369Z,8.82
2019-02-21T07:56:03.333Z,8.86
2019-02-21T07:57:11.583Z,8.90
2019-02-21T07:58:19.726Z,8.94
2019-02-21T07:59:27.889Z,8.96
2019-02-21T08:00:36.498Z,8.99
2019-02-21T08:01:45.457Z,9.02
2019-02-21T08:02:53.756Z,9.03
2019-02-21T08:04:02.120Z,9.05
2019-02-21T08:05:10.749Z,9.07
2019-02-21T08:06:20.322Z,9.09
2019-02-21T08:07:29.376Z,9.09
2019-02-21T08:08:38.188Z,9.10
2019-02-21T08:09:46.966Z,9.12
2019-02-21T08:10:55.255Z,9.07
2019-02-21T08:12:03.820Z,8.98
2019-02-21T08:13:12.140Z,8.95
2019-02-21T08:14:20.637Z,8.95
2019-02-21T08:15:29.567Z,8.95
2019-02-21T08:16:37.965Z,8.94
2019-02-21T08:17:46.357Z,8.97
2019-02-21T08:18:54.607Z,9.01
2019-02-21T08:20:08.245Z,9.04
2019-02-21T08:21:13.155Z,9.00
2019-02-21T08:22:21.422Z,8.98
2019-02-21T08:23:32.360Z,8.99
2019-02-21T08:24:39.965Z,8.99
2019-02-21T08:25:48.099Z,8.99
2019-02-21T08:26:56.398Z,9.00
2019-02-21T08:28:04.506Z,9.03
2019-02-21T08:29:12.879Z,9.05
2019-02-21T08:30:21.400Z,9.09
2019-02-21T08:31:29.615Z,9.11
2019-02-21T08:32:39.562Z,9.13
2019-02-21T08:33:57.965Z,9.17
2019-02-21T08:34:59.443Z,9.15
2019-02-21T08:36:07.726Z,9.08
2019-02-21T08:37:16.253Z,9.05
2019-02-21T08:38:24.732Z,9.07
2019-02-21T08:39:33.207Z,9.08
2019-02-21T08:40:41.424Z,9.06
2019-02-21T08:41:49.945Z,9.11
2019-02-21T08:42:58.322Z,9.17
2019-02-21T08:44:06.802Z,9.23
2019-02-21T08:45:17.697Z,9.29
2019-02-21T08:46:25.528Z,9.27
2019-02-21T08:47:33.912Z,9.27
2019-02-21T08:48:42.286Z,9.21
2019-02-21T08:49:50.886Z,9.21
2019-02-21T08:50:59.129Z,9.20
2019-02-21T08:52:07.263Z,9.19
2019-02-21T08:53:15.663Z,9.21
2019-02-21T08:54:25.017Z,9.25
2019-02-21T08:55:33.256Z,9.29
2019-02-21T08:56:41.628Z,9.35
2019-02-21T08:57:50.063Z,9.36
2019-02-21T08:58:58.173Z,9.37
2019-02-21T09:00:11.814Z,9.42
2019-02-21T09:01:20.110Z,9.40
2019-02-21T09:02:28.502Z,9.41
2019-02-21T09:03:36.710Z,9.45
2019-02-21T09:04:44.890Z,9.50
2019-02-21T09:05:53.168Z,9.52
2019-02-21T09:07:01.713Z,9.56
2019-02-21T09:08:10.412Z,9.51
2019-02-21T09:09:18.646Z,9.51
2019-02-21T09:10:27.866Z,9.53
2019-02-21T09:11:36.193Z,9.56
2019-02-21T09:12:48.025Z,9.53
2019-02-21T09:13:55.887Z,9.55
2019-02-21T09:15:04.692Z,9.53
2019-02-21T09:16:12.939Z,9.52
2019-02-21T09:17:21.208Z,9.51
2019-02-21T09:18:29.732Z,9.46
2019-02-21T09:19:38.234Z,9.45
2019-02-21T09:20:47.875Z,9.49
2019-02-21T09:21:56.287Z,9.56
2019-02-21T09:23:04.615Z,9.55
2019-02-21T09:24:13.850Z,9.52
2019-02-21T09:25:23.023Z,9.51
2019-02-21T09:26:31.179Z,9.53
2019-02-21T09:27:39.949Z,9.58
2019-02-21T09:28:48.550Z,9.64
2019-02-21T09:29:56.852Z,9.68
2019-02-21T09:31:05.621Z,9.68
2019-02-21T09:32:13.878Z,9.75
2019-02-21T09:33:22.232Z,9.80
2019-02-21T09:34:30.605Z,9.79
2019-02-21T09:35:39.316Z,9.76
2019-02-21T09:36:47.942Z,9.73
2019-02-21T09:37:56.475Z,9.70
2019-02-21T09:39:06.145Z,9.68
2019-02-21T09:40:15.695Z,9.68
2019-02-21T09:41:24.040Z,9.71
2019-02-21T09:42:32.447Z,9.78
2019-02-21T09:43:41.097Z,9.82
2019-02-21T09:44:49.965Z,9.88
2019-02-21T09:45:58.714Z,9.90
2019-02-21T09:47:07.775Z,9.97
2019-02-21T09:48:15.855Z,10.00
2019-02-21T09:49:24.537Z,10.03
2019-02-21T09:50:33.141Z,10.04
2019-02-21T09:51:43.120Z,10.05
2019-02-21T09:52:51.824Z,10.05
2019-02-21T09:54:00.583Z,10.07
2019-02-21T09:55:15.759Z,10.09
2019-02-21T09:56:30.358Z,10.09
2019-02-21T09:57:34.660Z,10.12
2019-02-21T09:58:42.927Z,10.16
2019-02-21T09:59:51.569Z,10.15
2019-02-21T10:01:00.359Z,10.19
2019-02-21T10:02:09.019Z,10.20
2019-02-21T10:03:17.473Z,10.21
2019-02-21T10:04:32.219Z,10.17
2019-02-21T10:05:36.030Z,10.15
2019-02-21T10:06:44.954Z,10.20
2019-02-21T10:07:53.826Z,10.24
2019-02-21T10:09:02.354Z,10.27
2019-02-21T10:10:16.344Z,10.29
2019-02-21T10:11:24.914Z,10.31
2019-02-21T10:12:33.543Z,10.33
2019-02-21T10:13:41.739Z,10.35
2019-02-21T10:14:49.909Z,10.38
2019-02-21T10:15:58.647Z,10.39
2019-02-21T10:17:07.067Z,10.37
2019-02-21T10:18:15.445Z,10.35
2019-02-21T10:19:23.547Z,10.39
2019-02-21T10:20:31.841Z,10.39
2019-02-21T10:21:40.444Z,10.39
2019-02-21T10:22:49.070Z,10.40
2019-02-21T10:23:57.582Z,10.44
2019-02-21T10:25:09.752Z,10.42
2019-02-21T10:26:18.156Z,10.40
2019-02-21T10:27:26.474Z,10.38
2019-02-21T10:28:34.865Z,10.34
2019-02-21T10:29:43.475Z,10.28
2019-02-21T10:30:51.773Z,10.21
2019-02-21T10:32:00.288Z,10.19
2019-02-21T10:33:08.703Z,10.20
2019-02-21T10:34:17.246Z,10.26
2019-02-21T10:35:25.703Z,10.29
2019-02-21T10:36:34.202Z,10.29
2019-02-21T10:37:42.331Z,10.26
2019-02-21T10:38:50.660Z,10.25
2019-02-21T10:39:59.410Z,10.27
2019-02-21T10:41:08.838Z,10.30
2019-02-21T10:42:17.522Z,10.29
2019-02-21T10:43:25.823Z,10.27
2019-02-21T10:44:34.277Z,10.30
2019-02-21T10:45:47.895Z,10.31
2019-02-21T10:46:53.001Z,10.30
2019-02-21T10:48:01.331Z,10.31
2019-02-21T10:49:09.646Z,10.35
2019-02-21T10:50:20.405Z,10.38
2019-02-21T10:51:29.074Z,10.37
2019-02-21T10:52:37.789Z,10.34
2019-02-21T10:53:45.943Z,10.35
2019-02-21T10:54:54.193Z,10.37
2019-02-21T10:56:02.717Z,10.35
2019-02-21T10:57:11.072Z,10.41
2019-02-21T10:58:20.267Z,10.49
2019-02-21T10:59:28.663Z,10.56
2019-02-21T11:00:37.254Z,10.57
2019-02-21T11:01:45.436Z,10.61
2019-02-21T11:02:53.753Z,10.67
2019-02-21T11:04:02.652Z,10.68
2019-02-21T11:05:11.825Z,10.69
2019-02-21T11:06:20.485Z,10.65
2019-02-21T11:07:28.994Z,10.62
2019-02-21T11:08:37.299Z,10.60
2019-02-21T11:09:45.876Z,10.61
2019-02-21T11:10:55.041Z,10.62
2019-02-21T11:12:04.330Z,10.59
2019-02-21T11:13:12.849Z,10.58
2019-02-21T11:14:21.303Z,10.57
2019-02-21T11:15:29.488Z,10.55
2019-02-21T11:16:37.688Z,10.58
2019-02-21T11:17:46.375Z,10.63
2019-02-21T11:18:54.808Z,10.68
2019-02-21T11:20:03.050Z,10.69
2019-02-21T11:21:11.338Z,10.70
2019-02-21T11:22:19.576Z,10.71
2019-02-21T11:23:27.889Z,10.71
2019-02-21T11:24:36.185Z,10.70
2019-02-21T11:25:44.269Z,10.67
2019-02-21T11:26:52.273Z,10.69
2019-02-21T11:28:00.884Z,10.73
2019-02-21T11:29:09.360Z,10.81
2019-02-21T11:30:21.737Z,10.91
2019-02-21T11:31:29.835Z,10.99
2019-02-21T11:32:38.341Z,11.05
2019-02-21T11:33:46.584Z,11.05
2019-02-21T11:35:05.534Z,11.04
2019-02-21T11:36:05.445Z,11.03
2019-02-21T11:37:13.543Z,11.06
2019-02-21T11:38:21.977Z,11.09
2019-02-21T11:39:30.577Z,11.12
2019-02-21T11:40:39.555Z,11.15
2019-02-21T11:41:47.979Z,11.19
2019-02-21T11:42:56.583Z,11.20
2019-02-21T11:44:05.192Z,11.20
2019-02-21T11:45:17.598Z,11.19
2019-02-21T11:46:26.195Z,11.23
2019-02-21T11:47:34.502Z,11.28
2019-02-21T11:48:43.007Z,11.30
2019-02-21T11:49:51.629Z,11.32
2019-02-21T11:51:00.174Z,11.33
2019-02-21T11:52:10.366Z,11.33
2019-02-21T11:53:19.365Z,11.37
2019-02-21T11:54:27.714Z,11.41
2019-02-21T11:55:36.217Z,11.45
2019-02-21T11:56:44.908Z,11.47
2019-02-21T11:57:53.815Z,11.49
2019-02-21T11:59:02.671Z,11.52
2019-02-21T12:00:15.982Z,11.53
2019-02-21T12:01:24.444Z,11.51
2019-02-21T12:02:38.839Z,11.52
2019-02-21T12:03:43.265Z,11.54
2019-02-21T12:04:51.379Z,11.57
2019-02-21T12:06:00.128Z,11.54
2019-02-21T12:07:08.698Z,11.53
2019-02-21T12:08:17.046Z,11.49
2019-02-21T12:09:25.493Z,11.42
2019-02-21T12:10:33.956Z,11.35
2019-02-21T12:11:42.680Z,11.30
2019-02-21T12:12:51.500Z,11.27
2019-02-21T12:13:59.778Z,11.26
2019-02-21T12:15:12.206Z,11.26
2019-02-21T12:16:20.477Z,11.24
2019-02-21T12:17:28.841Z,11.22
2019-02-21T12:18:37.653Z,11.21
2019-02-21T12:19:45.939Z,11.17
2019-02-21T12:20:54.227Z,11.11
2019-02-21T12:22:02.759Z,11.05
2019-02-21T12:23:11.036Z,11.00
2019-02-21T12:24:18.994Z,10.98
2019-02-21T12:25:27.404Z,10.93
2019-02-21T12:26:35.788Z,10.93
2019-02-21T12:27:44.202Z,10.95
2019-02-21T12:28:52.522Z,10.95
2019-02-21T12:30:01.897Z,10.92
2019-02-21T12:31:10.042Z,10.89
2019-02-21T12:32:18.541Z,10.89
2019-02-21T12:33:27.023Z,10.88
2019-02-21T12:34:35.232Z,10.87
2019-02-21T12:35:43.473Z,10.85
2019-02-21T12:36:52.158Z,10.82
2019-02-21T12:38:00.278Z,10.81
2019-02-21T12:39:09.099Z,10.80
2019-02-21T12:40:23.124Z,10.80
2019-02-21T12:41:32.606Z,10.80
2019-02-21T12:42:42.580Z,10.77
2019-02-21T12:43:50.958Z,10.80
2019-02-21T12:44:59.425Z,10.84
2019-02-21T12:46:08.330Z,10.87
2019-02-21T12:47:16.633Z,10.87
2019-02-21T12:48:25.210Z,10.86
2019-02-21T12:49:33.428Z,10.80
2019-02-21T12:50:44.566Z,10.81
2019-02-21T12:51:51.973Z,10.83
2019-02-21T12:53:00.470Z,10.78
2019-02-21T12:54:08.386Z,10.76
2019-02-21T12:55:27.184Z,10.73
2019-02-21T12:56:26.694Z,10.71
2019-02-21T12:57:35.040Z,10.70
2019-02-21T12:58:45.162Z,10.68
2019-02-21T12:59:53.090Z,10.67
2019-02-21T13:01:01.522Z,10.67
2019-02-21T13:02:10.100Z,10.65
2019-02-21T13:03:18.293Z,10.69
2019-02-21T13:04:26.595Z,10.72
2019-02-21T13:05:41.039Z,10.71
2019-02-21T13:06:45.060Z,10.71
2019-02-21T13:07:53.510Z,10.70
2019-02-21T13:09:01.836Z,10.67
2019-02-21T13:10:19.025Z,10.68
2019-02-21T13:11:27.323Z,10.66
2019-02-21T13:12:35.538Z,10.64
2019-02-21T13:13:43.648Z,10.64
2019-02-21T13:14:52.087Z,10.61
2019-02-21T13:16:00.106Z,10.58
2019-02-21T13:17:08.779Z,10.56
2019-02-21T13:18:17.662Z,10.58
2019-02-21T13:19:26.237Z,10.59
2019-02-21T13:20:34.486Z,10.64
2019-02-21T13:21:43.885Z,10.64
2019-02-21T13:22:52.017Z,10.64
2019-02-21T13:24:00.262Z,10.63
2019-02-21T13:25:18.049Z,10.63
2019-02-21T13:26:26.720Z,10.68
2019-02-21T13:27:35.048Z,10.70
2019-02-21T13:28:43.169Z,10.69
2019-02-21T13:29:51.319Z,10.70
2019-02-21T13:30:59.629Z,10.69
2019-02-21T13:32:08.738Z,10.68
2019-02-21T13:33:16.837Z,10.67
2019-02-21T13:34:25.151Z,10.66
2019-02-21T13:35:33.642Z,10.67
2019-02-21T13:36:41.986Z,10.64
2019-02-21T13:37:50.157Z,10.63
2019-02-21T13:38:58.234Z,10.60
2019-02-21T13:40:10.737Z,10.60
2019-02-21T13:41:19.403Z,10.59
2019-02-21T13:42:28.849Z,10.54
2019-02-21T13:43:37.033Z,10.54
2019-02-21T13:44:45.526Z,10.56
2019-02-21T13:45:54.332Z,10.55
2019-02-21T13:47:02.356Z,10.57
2019-02-21T13:48:10.716Z,10.59
2019-02-21T13:49:19.099Z,10.63
2019-02-21T13:50:27.280Z,10.61
2019-02-21T13:51:35.838Z,10.59
2019-02-21T13:52:44.926Z,10.61
2019-02-21T13:53:53.667Z,10.63
2019-02-21T13:55:02.074Z,10.66
2019-02-21T13:56:11.029Z,10.67
2019-02-21T13:57:19.412Z,10.73
2019-02-21T13:58:27.720Z,10.73
2019-02-21T13:59:36.423Z,10.73
2019-02-21T14:00:44.836Z,10.69
2019-02-21T14:01:53.833Z,10.70
2019-02-21T14:03:02.212Z,10.70
2019-02-21T14:04:10.826Z,10.69
2019-02-21T14:05:19.194Z,10.68
2019-02-21T14:06:27.312Z,10.67
2019-02-21T14:07:37.302Z,10.63
2019-02-21T14:08:45.121Z,10.59
2019-02-21T14:09:53.374Z,10.55
2019-02-21T14:11:01.725Z,10.55
2019-02-21T14:12:10.164Z,10.54
2019-02-21T14:13:18.998Z,10.57
2019-02-21T14:14:27.617Z,10.55
2019-02-21T14:15:36.113Z,10.52
2019-02-21T14:16:46.796Z,10.47
2019-02-21T14:17:54.584Z,10.44
2019-02-21T14:19:02.666Z,10.39
2019-02-21T14:20:11.706Z,10.38
2019-02-21T14:21:19.858Z,10.37
2019-02-21T14:22:28.337Z,10.38
2019-02-21T14:23:37.177Z,10.36
2019-02-21T14:24:45.478Z,10.35
2019-02-21T14:25:53.775Z,10.37
2019-02-21T14:27:02.157Z,10.39
2019-02-21T14:28:10.397Z,10.36
2019-02-21T14:29:18.659Z,10.36
2019-02-21T14:30:27.395Z,10.34
2019-02-21T14:31:35.424Z,10.33
2019-02-21T14:32:43.935Z,10.31
2019-02-21T14:33:52.744Z,10.33
2019-02-21T14:35:00.910Z,10.36
2019-02-21T14:36:15.532Z,10.34
2019-02-21T14:37:19.448Z,10.34
2019-02-21T14:38:28.507Z,10.35
2019-02-21T14:39:37.108Z,10.32
2019-02-21T14:40:45.303Z,10.30
2019-02-21T14:41:55.183Z,10.30
2019-02-21T14:43:03.519Z,10.32
2019-02-21T14:44:11.845Z,10.37
2019-02-21T14:45:22.584Z,10.40
2019-02-21T14:46:30.686Z,10.42
2019-02-21T14:47:39.413Z,10.47
2019-02-21T14:48:47.722Z,10.47
2019-02-21T14:49:55.997Z,10.49
2019-02-21T14:51:04.680Z,10.51
2019-02-21T14:52:13.779Z,10.53
2019-02-21T14:53:22.059Z,10.54
2019-02-21T14:54:31.076Z,10.57
2019-02-21T14:55:39.156Z,10.61
2019-02-21T14:56:47.166Z,10.61
2019-02-21T14:57:55.542Z,10.64
2019-02-21T14:59:04.209Z,10.68
2019-02-21T15:00:28.068Z,10.71
2019-02-21T15:01:36.625Z,10.74
2019-02-21T15:02:45.012Z,10.76
2019-02-21T15:03:53.945Z,10.78
2019-02-21T15:05:02.656Z,10.74
2019-02-21T15:06:10.859Z,10.69
2019-02-21T15:07:19.196Z,10.67
2019-02-21T15:08:28.076Z,10.61
2019-02-21T15:09:36.544Z,10.59